Tuskegee, Alabama
Current Conditions -  °F | °C
As of 11:35 PM on Sunday 21 Dec 2014 (Local Time) from KAUO Reporting Station
Overcast Overcast  
Wind Chill: 43°   Ceiling: 300
Heat Index: 46°   Visibility: 4mi
Dew Point: 45°   Wind: 7mph
Humidity: 93%   Direction: 70°ENE
Pressure: 30.07"   Gusts: NA
Location:  32.42°N, 85.69°W
Report Text: KAUO 220535Z AUTO 07006KT 4SM OVC003 08/07 A3007 RMK AO1
Loading
Personal Weather Stations






























Interactive Weather Map New forecast layout! Learn more

10-Day Weather Forecast

Advertisements
Track Severe Weather on mobile